Time;durP1;ratioP1;P1;durP2;ratioP2;P2;SDS_P1;SDS_P2;PMS_P1;PMS_P2;Temp;Humidity;BMP_temperature;BMP_pressure;BME280_temperature;BME280_humidity;BME280_pressure;Samples;Min_cycle;Max_cycle;Signal;HPM_P1;HPM_P2
2022/10/13 00:00:18;;;;;;;27.00;13.93;;;;;;;9.24;100.00;101932.09;6179523;23;20009;-90
2022/10/13 00:02:43;;;;;;;25.17;12.77;;;;;;;9.27;100.00;101942.44;6180436;23;20037;-90
2022/10/13 00:05:09;;;;;;;28.38;13.85;;;;;;;9.29;100.00;101935.50;6180674;23;20087;-91
2022/10/13 00:07:35;;;;;;;27.63;13.43;;;;;;;9.32;100.00;101943.28;6181666;23;20035;-90
2022/10/13 00:10:00;;;;;;;25.50;13.35;;;;;;;9.33;100.00;101934.66;6181414;23;20034;-90
2022/10/13 00:12:52;;;;;;;29.00;14.38;;;;;;;9.23;100.00;101918.28;6180830;23;20005;-90
2022/10/13 00:15:28;;;;;;;26.55;13.65;;;;;;;9.36;100.00;101932.06;6180264;23;20016;-90
2022/10/13 00:17:53;;;;;;;27.70;13.40;;;;;;;9.38;100.00;101928.63;6180560;23;20009;-91
2022/10/13 00:20:21;;;;;;;29.42;14.07;;;;;;;9.27;100.00;101906.22;6178761;23;20102;-91
2022/10/13 00:22:55;;;;;;;24.35;13.48;;;;;;;9.39;100.00;101921.72;6180297;23;20001;-90
2022/10/13 00:25:23;;;;;;;29.17;13.77;;;;;;;9.35;100.00;101907.03;6181640;23;20008;-90
2022/10/13 00:27:49;;;;;;;25.73;13.60;;;;;;;9.40;100.00;101907.94;6181792;23;20419;-91
2022/10/13 00:30:23;;;;;;;30.13;14.48;;;;;;;9.29;100.00;101884.63;6180446;23;20009;-90
2022/10/13 00:32:59;;;;;;;28.30;14.63;;;;;;;9.37;100.00;101898.44;6179567;23;20481;-90
2022/10/13 00:35:24;;;;;;;27.70;13.50;;;;;;;9.37;100.00;101888.06;6179677;23;20010;-91
2022/10/13 00:37:52;;;;;;;28.63;14.32;;;;;;;9.45;100.00;101894.09;6179879;23;20005;-91
2022/10/13 00:40:29;;;;;;;31.08;14.68;;;;;;;9.49;100.00;101900.97;6176513;23;20009;-91
2022/10/13 00:42:55;;;;;;;25.83;13.95;;;;;;;9.44;100.00;101887.19;6182326;23;20088;-91
2022/10/13 00:45:37;;;;;;;30.40;14.32;;;;;;;9.44;100.00;101886.34;6180742;23;20033;-92
2022/10/13 00:48:03;;;;;;;31.13;13.93;;;;;;;9.54;100.00;101906.16;6179567;23;20060;-91
2022/10/13 00:50:40;;;;;;;29.70;14.13;;;;;;;9.43;100.00;101892.38;6178626;23;20005;-92
2022/10/13 00:53:12;;;;;;;29.67;14.43;;;;;;;9.44;100.00;101894.97;6181029;23;20001;-91
2022/10/13 00:55:42;;;;;;;31.70;14.80;;;;;;;9.39;100.00;101891.53;6181006;23;20394;-91
2022/10/13 00:58:11;;;;;;;28.35;14.48;;;;;;;9.47;100.00;101894.97;6181718;23;20023;-91
2022/10/13 01:00:37;;;;;;;27.15;13.20;;;;;;;9.44;100.00;101897.56;6182462;23;20447;-91
2022/10/13 01:03:03;;;;;;;28.80;14.20;;;;;;;9.38;100.00;101883.78;6180843;23;20044;-91
2022/10/13 01:05:32;;;;;;;28.70;14.68;;;;;;;9.52;100.00;101907.91;6180222;23;20428;-90
2022/10/13 01:08:01;;;;;;;31.60;14.70;;;;;;;9.37;100.00;101884.63;6180562;23;20091;-90
2022/10/13 01:10:38;;;;;;;27.95;13.32;;;;;;;9.48;100.00;101898.44;6181230;23;20037;-91
2022/10/13 01:13:23;;;;;;;31.92;14.63;;;;;;;9.52;100.00;101901.00;6180243;23;20004;-90
2022/10/13 01:16:09;;;;;;;29.17;14.43;;;;;;;9.45;100.00;101885.47;6179939;23;20012;-92
2022/10/13 01:18:59;;;;;;;30.45;14.65;;;;;;;9.54;100.00;101906.16;6179610;23;20012;-91
2022/10/13 01:21:37;;;;;;;25.25;13.32;;;;;;;9.54;100.00;101906.16;6180044;23;20087;-91
2022/10/13 01:24:36;;;;;;;26.83;13.90;;;;;;;9.38;100.00;101874.28;6180600;23;20422;-91
2022/10/13 01:27:38;;;;;;;31.45;13.90;;;;;;;9.55;100.00;101899.28;6180170;23;20005;-90
2022/10/13 01:30:17;;;;;;;29.67;13.77;;;;;;;9.55;100.00;101900.13;6179927;23;20009;-91
2022/10/13 01:33:13;;;;;;;27.83;13.57;;;;;;;9.56;100.00;101901.81;6180639;23;20039;-91
2022/10/13 01:35:47;;;;;;;26.70;13.43;;;;;;;9.57;100.00;101903.56;6180057;23;20005;-90
2022/10/13 01:38:28;;;;;;;;;;;;;;;9.63;100.00;101903.53;6180649;23;20013;-91
2022/10/13 01:41:13;;;;;;;28.70;13.18;;;;;;;9.62;100.00;101896.63;6179087;23;19912;-91
2022/10/13 01:43:55;;;;;;;27.05;13.23;;;;;;;9.59;100.00;101888.91;6179882;23;20339;-91
2022/10/13 01:46:51;;;;;;;27.27;12.80;;;;;;;9.55;100.00;101882.03;6179063;23;20012;-90
2022/10/13 01:49:33;;;;;;;28.55;13.65;;;;;;;9.49;100.00;101872.50;6179463;23;20001;-91
2022/10/13 01:52:06;;;;;;;29.17;13.30;;;;;;;9.60;100.00;101884.59;6179633;23;20439;-91
2022/10/13 01:54:32;;;;;;;29.27;13.98;;;;;;;9.64;100.00;101891.47;6179851;23;20027;-91
2022/10/13 01:57:01;;;;;;;28.50;13.65;;;;;;;9.59;100.00;101877.69;6179874;23;20015;-91
2022/10/13 01:59:37;;;;;;;30.83;13.98;;;;;;;9.67;100.00;101878.53;6179534;23;20032;-92
2022/10/13 02:02:24;;;;;;;31.77;14.20;;;;;;;9.73;100.00;101881.94;6180048;23;20001;-91
2022/10/13 02:05:08;;;;;;;31.88;13.82;;;;;;;9.77;100.00;101875.00;6178707;23;20012;-92
2022/10/13 02:07:58;;;;;;;29.85;12.85;;;;;;;9.81;100.00;101867.25;6177890;23;20019;-91
2022/10/13 02:10:35;;;;;;;24.45;13.02;;;;;;;9.74;100.00;101846.56;6179990;23;20005;-91
2022/10/13 02:13:13;;;;;;;29.60;13.52;;;;;;;9.74;100.00;101837.06;6181751;23;20084;-91
2022/10/13 02:15:48;;;;;;;22.88;12.48;;;;;;;9.85;100.00;101852.53;6179834;23;20035;-91
2022/10/13 02:18:21;;;;;;;27.73;12.82;;;;;;;9.80;100.00;101851.72;6178251;23;20501;-91
2022/10/13 02:20:53;;;;;;;26.75;12.73;;;;;;;9.92;100.00;101859.41;6179909;23;19997;-91
2022/10/13 02:23:19;;;;;;;27.20;13.73;;;;;;;9.90;100.00;101856.84;6179863;23;20546;-91
2022/10/13 02:25:46;;;;;;;26.90;12.40;;;;;;;9.91;100.00;101844.75;6180425;23;20033;-91
2022/10/13 02:28:14;;;;;;;29.42;12.73;;;;;;;10.01;100.00;101848.16;6181325;23;20063;-91
2022/10/13 02:30:42;;;;;;;29.80;13.60;;;;;;;9.88;100.00;101816.28;6179493;23;20005;-91
2022/10/13 02:33:17;;;;;;;26.60;12.27;;;;;;;9.93;100.00;101832.66;6179666;23;20005;-91
2022/10/13 02:35:46;;;;;;;27.05;12.52;;;;;;;10.05;100.00;101847.25;6178772;23;20092;-90
2022/10/13 02:38:11;;;;;;;30.35;13.25;;;;;;;9.95;100.00;101835.25;6179710;23;20005;-90
2022/10/13 02:40:39;;;;;;;27.98;12.70;;;;;;;9.94;100.00;101813.66;6176072;23;20009;-91
2022/10/13 02:43:05;;;;;;;29.08;13.02;;;;;;;10.10;100.00;101845.53;6181922;23;20005;-90
2022/10/13 02:45:33;;;;;;;24.85;12.00;;;;;;;10.14;100.00;101836.84;6182228;23;20074;-91
2022/10/13 02:47:59;;;;;;;25.17;12.68;;;;;;;10.16;100.00;101835.13;6180587;23;20017;-90
2022/10/13 02:50:26;;;;;;;24.67;12.43;;;;;;;10.17;100.00;101829.09;6181122;23;20105;-91
2022/10/13 02:52:52;;;;;;;25.80;12.52;;;;;;;10.17;100.00;101826.50;6182997;23;20309;-93
2022/10/13 02:55:23;;;;;;;27.17;12.85;;;;;;;10.24;100.00;101834.22;6180107;23;20501;-91
2022/10/13 02:57:49;;;;;;;26.65;13.25;;;;;;;10.20;100.00;101814.41;6180985;23;20001;-91
2022/10/13 03:00:15;;;;;;;25.42;12.30;;;;;;;10.32;100.00;101835.91;6180538;23;20001;-91
2022/10/13 03:02:43;;;;;;;26.92;12.40;;;;;;;10.28;100.00;101825.56;6182897;23;20009;-90
2022/10/13 03:05:14;;;;;;;30.23;13.95;;;;;;;10.36;100.00;101833.31;6181704;23;20001;-91
2022/10/13 03:07:41;;;;;;;27.83;12.43;;;;;;;10.32;100.00;101815.16;6181814;23;20012;-90
2022/10/13 03:10:07;;;;;;;26.75;13.13;;;;;;;10.36;100.00;101811.72;6179602;23;20012;-91
2022/10/13 03:12:33;;;;;;;25.60;11.93;;;;;;;10.32;100.00;101797.91;6182430;23;20005;-91
2022/10/13 03:15:01;;;;;;;28.15;12.93;;;;;;;10.42;100.00;101809.06;6180026;23;20443;-91
2022/10/13 03:17:41;;;;;;;27.05;13.30;;;;;;;10.47;100.00;101817.66;6179740;23;19997;-91
2022/10/13 03:20:07;;;;;;;24.38;12.10;;;;;;;10.41;100.00;101800.44;6181360;23;20008;-90
2022/10/13 03:22:36;;;;;;;24.80;12.13;;;;;;;10.46;100.00;101811.63;6180343;23;20001;-90
2022/10/13 03:25:02;;;;;;;30.50;13.23;;;;;;;10.42;100.00;101793.50;6180862;23;20076;-90
2022/10/13 03:27:39;;;;;;;27.67;12.98;;;;;;;10.46;100.00;101803.84;6182089;23;20445;-90
2022/10/13 03:30:11;;;;;;;29.10;13.35;;;;;;;10.41;100.00;101797.84;6180644;23;20665;-90
2022/10/13 03:32:52;;;;;;;27.25;12.88;;;;;;;10.46;100.00;101801.25;6180415;23;20514;-91
2022/10/13 03:35:20;;;;;;;26.70;11.60;;;;;;;10.48;100.00;101796.06;6180201;23;20012;-90
2022/10/13 03:37:58;;;;;;;25.20;12.57;;;;;;;10.57;100.00;101812.41;6179879;23;20004;-91
2022/10/13 03:40:29;;;;;;;30.23;12.82;;;;;;;10.47;100.00;101790.00;6180191;23;20017;-93
2022/10/13 03:42:59;;;;;;;27.90;12.50;;;;;;;10.63;100.00;101798.53;6181211;23;20063;-92
2022/10/13 03:45:30;;;;;;;26.65;12.57;;;;;;;10.52;100.00;101777.00;6179706;23;20017;-92
2022/10/13 03:48:01;;;;;;;27.75;12.05;;;;;;;10.60;100.00;101789.03;6180684;23;20009;-91
2022/10/13 03:50:33;;;;;;;29.38;12.23;;;;;;;10.71;100.00;101801.91;6179980;23;20099;-89
2022/10/13 03:53:01;;;;;;;29.02;12.48;;;;;;;10.60;100.00;101770.03;6182455;23;20461;-92
2022/10/13 03:55:29;;;;;;;26.95;12.65;;;;;;;10.78;100.00;101802.72;6181615;23;20457;-91
2022/10/13 03:57:55;;;;;;;25.50;11.60;;;;;;;10.71;100.00;101780.31;6180029;23;20005;-91
2022/10/13 04:00:20;;;;;;;26.35;11.85;;;;;;;10.73;100.00;101774.22;6181815;23;20012;-91
2022/10/13 04:02:49;;;;;;;29.02;12.80;;;;;;;10.77;100.00;101778.53;6180858;23;20035;-90
2022/10/13 04:05:15;;;;;;;26.15;11.95;;;;;;;10.77;100.00;101775.94;6179995;23;20016;-90
2022/10/13 04:07:45;;;;;;;23.25;11.13;;;;;;;10.70;100.00;101763.88;6181511;23;20091;-92
2022/10/13 04:10:28;;;;;;;28.52;11.50;;;;;;;10.76;100.00;101774.19;6179654;23;20005;-91
2022/10/13 04:12:56;;;;;;;29.23;11.90;;;;;;;10.77;100.00;101773.34;6181745;23;20008;-91
2022/10/13 04:15:27;;;;;;;23.67;11.10;;;;;;;10.78;100.00;101771.59;6179152;23;20427;-91
2022/10/13 04:18:12;;;;;;;26.50;12.15;;;;;;;10.88;100.00;101786.19;6180466;23;20000;-91
2022/10/13 04:20:43;;;;;;;23.50;11.80;;;;;;;10.88;100.00;101786.19;6180416;23;20008;-91
2022/10/13 04:23:11;;;;;;;24.20;11.52;;;;;;;10.89;100.00;101777.53;6180825;23;20016;-92
2022/10/13 04:25:41;;;;;;;29.35;12.32;;;;;;;10.77;100.00;101750.00;6179901;23;20005;-91
2022/10/13 04:28:07;;;;;;;23.23;11.50;;;;;;;10.78;100.00;101753.44;6179939;23;20399;-91
2022/10/13 04:30:37;;;;;;;28.65;11.98;;;;;;;10.86;100.00;101769.75;6179735;23;20008;-91
2022/10/13 04:33:06;;;;;;;26.38;11.93;;;;;;;10.83;100.00;101751.66;6180873;23;20024;-91
2022/10/13 04:35:42;;;;;;;26.73;11.40;;;;;;;10.76;100.00;101745.69;6180084;23;20005;-92
2022/10/13 04:38:10;;;;;;;25.60;11.88;;;;;;;10.84;100.00;101748.19;6179554;23;20088;-91
2022/10/13 04:40:42;;;;;;;27.88;13.30;;;;;;;10.84;100.00;101745.59;6177771;23;20009;-91
2022/10/13 04:43:14;;;;;;;27.73;11.80;;;;;;;10.87;100.00;101748.16;6180941;23;20313;-91
2022/10/13 04:45:48;;;;;;;27.75;12.15;;;;;;;10.90;100.00;101749.00;6180857;23;20008;-91
2022/10/13 04:48:14;;;;;;;28.27;12.20;;;;;;;10.82;100.00;101739.56;6178649;23;20015;-91
2022/10/13 04:50:42;;;;;;;24.70;11.65;;;;;;;10.93;100.00;101763.63;6181480;23;20005;-91
2022/10/13 04:53:08;;;;;;;25.13;12.20;;;;;;;10.93;100.00;101756.72;6181070;23;20005;-91
2022/10/13 04:55:36;;;;;;;26.02;12.00;;;;;;;10.84;100.00;101743.88;6180693;23;20015;-91
2022/10/13 04:58:03;;;;;;;26.17;12.75;;;;;;;10.92;100.00;101744.63;6181931;23;20007;-90
2022/10/13 05:00:37;;;;;;;27.77;12.23;;;;;;;10.98;100.00;101743.72;6181144;23;20454;-92
2022/10/13 05:03:02;;;;;;;23.98;10.82;;;;;;;10.89;100.00;101723.94;6182188;23;20029;-92
2022/10/13 05:05:33;;;;;;;27.95;11.63;;;;;;;11.00;100.00;101745.41;6180315;23;20063;-91
2022/10/13 05:08:01;;;;;;;24.73;11.75;;;;;;;10.94;100.00;101747.22;6179790;23;20009;-91
2022/10/13 05:10:29;;;;;;;26.55;11.90;;;;;;;10.98;100.00;101747.19;6179840;23;20016;-90
2022/10/13 05:12:57;;;;;;;28.80;12.38;;;;;;;10.93;100.00;101737.69;6178993;23;20000;-90
2022/10/13 05:15:28;;;;;;;30.60;12.20;;;;;;;11.05;100.00;101753.16;6181575;23;20059;-90
2022/10/13 05:17:54;;;;;;;28.08;11.73;;;;;;;10.92;100.00;101720.41;6179696;23;20036;-91
2022/10/13 05:20:22;;;;;;;25.23;11.90;;;;;;;10.96;100.00;101722.13;6179658;23;20184;-90
2022/10/13 05:22:48;;;;;;;27.20;11.80;;;;;;;10.92;100.00;101718.69;6180515;23;20327;-90
2022/10/13 05:25:13;;;;;;;24.80;11.60;;;;;;;10.96;100.00;101735.94;6182444;23;20426;-89
2022/10/13 05:27:38;;;;;;;33.08;12.93;;;;;;;11.02;100.00;101763.56;6181685;23;20092;-90
2022/10/13 05:30:04;;;;;;;26.30;11.68;;;;;;;11.00;100.00;101752.31;6179255;23;20032;-90
2022/10/13 05:32:30;;;;;;;23.42;11.88;;;;;;;10.97;100.00;101760.16;6181500;23;20092;-90
2022/10/13 05:34:55;;;;;;;25.50;12.45;;;;;;;10.99;100.00;101760.97;6181746;23;20001;-90
2022/10/13 05:37:21;;;;;;;24.27;12.02;;;;;;;10.91;100.00;101758.50;6179789;23;20012;-90
2022/10/13 05:39:49;;;;;;;24.27;11.70;;;;;;;10.90;100.00;101759.38;6179350;23;20009;-91
2022/10/13 05:42:15;;;;;;;27.27;12.55;;;;;;;10.90;100.00;101756.78;6178589;23;20009;-90
2022/10/13 05:44:46;;;;;;;28.55;12.88;;;;;;;10.98;100.00;101772.25;6180279;23;20032;-90
2022/10/13 05:47:11;;;;;;;26.42;11.95;;;;;;;10.86;100.00;101744.69;6179364;23;20019;-90
2022/10/13 05:49:38;;;;;;;29.15;12.70;;;;;;;10.90;100.00;101764.56;6178443;23;20013;-90
2022/10/13 05:52:09;;;;;;;26.10;11.95;;;;;;;10.86;100.00;101739.50;6179793;23;20005;-90
2022/10/13 05:54:40;;;;;;;26.15;12.18;;;;;;;10.84;100.00;101735.22;6178770;23;20005;-90
2022/10/13 05:57:15;;;;;;;27.45;12.40;;;;;;;10.91;100.00;101755.91;6180553;23;20001;-92
2022/10/13 05:59:46;;;;;;;24.40;11.27;;;;;;;10.92;100.00;101754.13;6180417;23;20079;-90
2022/10/13 06:02:14;;;;;;;23.63;10.98;;;;;;;10.84;100.00;101741.28;6179938;23;20411;-90
2022/10/13 06:04:46;;;;;;;23.25;11.45;;;;;;;10.88;100.00;101744.69;6179815;23;20071;-90
2022/10/13 06:07:12;;;;;;;27.20;12.50;;;;;;;10.89;100.00;101742.09;6179387;23;20092;-90
2022/10/13 06:09:39;;;;;;;26.52;12.27;;;;;;;10.81;100.00;101727.47;6181119;23;20396;-91
2022/10/13 06:12:09;;;;;;;26.15;11.98;;;;;;;10.80;100.00;101730.94;6179978;23;20009;-91
2022/10/13 06:14:35;;;;;;;28.52;12.23;;;;;;;10.85;100.00;101735.19;6179442;23;20005;-90
2022/10/13 06:17:00;;;;;;;28.70;12.63;;;;;;;10.80;100.00;101729.19;6180340;23;20012;-90
2022/10/13 06:19:29;;;;;;;24.10;11.95;;;;;;;10.90;100.00;101743.81;6179586;23;20001;-91
2022/10/13 06:21:56;;;;;;;29.75;13.60;;;;;;;10.85;100.00;101734.34;6179932;23;20004;-90
2022/10/13 06:24:22;;;;;;;25.90;12.30;;;;;;;10.86;100.00;101720.50;6179975;23;20009;-92
2022/10/13 06:26:57;;;;;;;23.60;11.85;;;;;;;10.87;100.00;101730.00;6179888;23;20001;-91
2022/10/13 06:29:25;;;;;;;28.48;13.10;;;;;;;10.97;100.00;101736.81;6178443;23;20033;-91
2022/10/13 06:31:50;;;;;;;28.33;12.38;;;;;;;10.93;100.00;101728.19;6181113;23;20009;-90
2022/10/13 06:34:24;;;;;;;29.80;12.80;;;;;;;10.94;100.00;101722.13;6180723;23;20116;-91
2022/10/13 06:36:52;;;;;;;31.75;13.43;;;;;;;10.91;100.00;101706.63;6178794;23;20004;-91
2022/10/13 06:39:21;;;;;;;30.02;12.68;;;;;;;11.07;100.00;101734.09;6180214;23;20112;-90
2022/10/13 06:41:47;;;;;;;24.88;12.55;;;;;;;11.01;100.00;101713.41;6179956;23;20041;-91
2022/10/13 06:44:15;;;;;;;26.73;12.13;;;;;;;11.06;100.00;101719.38;6178625;23;20001;-91
2022/10/13 06:46:41;;;;;;;33.05;14.68;;;;;;;11.04;100.00;101713.38;6178853;23;20419;-91
2022/10/13 06:49:09;;;;;;;32.60;13.75;;;;;;;11.08;100.00;101709.00;6178273;23;20020;-89
2022/10/13 06:51:34;;;;;;;30.15;13.90;;;;;;;11.23;100.00;101720.94;6180733;23;20036;-91
2022/10/13 06:54:00;;;;;;;30.48;14.50;;;;;;;11.32;100.00;101737.28;6179597;23;20080;-90
2022/10/13 06:56:25;;;;;;;31.60;13.57;;;;;;;11.24;100.00;101713.13;6181000;23;20005;-90
2022/10/13 06:58:53;;;;;;;31.63;13.82;;;;;;;11.27;100.00;101707.03;6180188;23;20007;-92
2022/10/13 07:01:18;;;;;;;33.13;14.13;;;;;;;11.37;100.00;101713.84;6180760;23;20514;-89
2022/10/13 07:03:47;;;;;;;29.00;13.68;;;;;;;11.45;100.00;101718.06;6181366;23;20498;-90
2022/10/13 07:06:13;;;;;;;34.83;14.18;;;;;;;11.49;100.00;101721.47;6178452;23;20009;-92
2022/10/13 07:08:38;;;;;;;29.65;13.80;;;;;;;11.57;100.00;101740.41;6177736;23;20075;-91
2022/10/13 07:11:08;;;;;;;32.20;14.60;;;;;;;11.53;100.00;101724.88;6177898;23;20005;-91
2022/10/13 07:13:34;;;;;;;32.35;13.77;;;;;;;11.61;100.00;101729.06;6181222;23;20001;-91
2022/10/13 07:16:03;;;;;;;28.65;13.82;;;;;;;11.58;100.00;101721.34;6181642;23;20008;-91
2022/10/13 07:18:32;;;;;;;30.48;14.18;;;;;;;11.69;100.00;101727.22;6180262;23;20085;-92
2022/10/13 07:20:59;;;;;;;31.95;14.45;;;;;;;11.71;100.00;101738.47;6179475;23;20426;-92
2022/10/13 07:23:25;;;;;;;38.45;15.65;;;;;;;11.73;100.00;101728.06;6179393;23;20005;-91
2022/10/13 07:25:50;;;;;;;29.42;14.18;;;;;;;11.75;100.00;101731.50;6179806;23;20005;-91
2022/10/13 07:28:16;;;;;;;32.60;14.63;;;;;;;11.76;100.00;101738.44;6179281;23;20040;-90
2022/10/13 07:30:43;;;;;;;33.95;14.82;;;;;;;11.79;100.00;101738.41;6181691;23;20005;-91
2022/10/13 07:33:11;;;;;;;32.53;14.68;;;;;;;11.81;100.00;101742.66;6182609;23;20001;-91
2022/10/13 07:35:40;;;;;;;33.30;15.38;;;;;;;11.84;100.00;101747.84;6181786;23;20005;-90
2022/10/13 07:38:11;;;;;;;31.83;15.10;;;;;;;11.85;100.00;101739.16;6180588;23;20005;-91
2022/10/13 07:40:37;;;;;;;39.40;14.68;;;;;;;11.79;100.00;101726.28;6183121;23;20387;-91
2022/10/13 07:43:03;;;;;;;32.10;14.65;;;;;;;11.87;100.00;101727.00;6183007;23;20012;-91
2022/10/13 07:45:28;;;;;;;33.95;14.70;;;;;;;11.94;100.00;101734.72;6181182;23;19997;-91
2022/10/13 07:47:55;;;;;;;32.70;13.93;;;;;;;11.93;100.00;101720.00;6180985;23;20005;-91
2022/10/13 07:50:23;;;;;;;31.35;14.63;;;;;;;11.89;100.00;101708.78;6180900;23;20012;-91
2022/10/13 07:52:49;;;;;;;37.90;16.50;;;;;;;11.99;100.00;101732.91;6180829;23;20005;-92
2022/10/13 07:55:17;;;;;;;35.25;14.73;;;;;;;12.08;100.00;101731.00;6181483;23;20001;-91
2022/10/13 07:57:43;;;;;;;38.72;16.45;;;;;;;12.06;100.00;101716.34;6182088;23;20028;-92
2022/10/13 08:00:09;;;;;;;38.67;15.65;;;;;;;12.12;100.00;101727.50;6182760;23;20375;-90
2022/10/13 08:02:34;;;;;;;35.45;15.52;;;;;;;12.15;100.00;101716.16;6181183;23;20087;-90
2022/10/13 08:05:06;;;;;;;33.92;15.90;;;;;;;12.25;100.00;101731.59;6181055;23;20465;-91
2022/10/13 08:07:36;;;;;;;38.80;16.08;;;;;;;12.35;100.00;101729.69;6180805;23;20432;-90
2022/10/13 08:10:02;;;;;;;32.15;15.55;;;;;;;12.44;100.00;101733.88;6183067;23;20194;-91
2022/10/13 08:12:27;;;;;;;31.90;15.68;;;;;;;12.57;100.00;101745.78;6181302;23;20012;-90
2022/10/13 08:14:55;;;;;;;37.92;16.40;;;;;;;12.57;100.00;101725.00;6182563;23;20001;-91
2022/10/13 08:17:21;;;;;;;34.67;15.93;;;;;;;12.66;100.00;101720.50;6180180;23;20443;-90
2022/10/13 08:19:46;;;;;;;34.20;16.38;;;;;;;12.78;100.00;101729.81;6180853;23;20016;-90
2022/10/13 08:22:13;;;;;;;34.25;15.68;;;;;;;12.89;100.00;101727.03;6182514;23;20059;-91
2022/10/13 08:24:44;;;;;;;34.25;15.68;;;;;;;13.02;100.00;101725.91;6181422;23;20008;-90
2022/10/13 08:27:22;;;;;;;28.67;15.30;;;;;;;13.11;99.85;101723.09;6180670;23;20033;-91
2022/10/13 08:29:55;;;;;;;32.85;14.77;;;;;;;13.16;98.90;101716.09;6180724;23;20313;-91
2022/10/13 08:32:23;;;;;;;28.15;14.13;;;;;;;13.16;98.37;101699.63;6180964;23;20005;-90
2022/10/13 08:34:49;;;;;;;33.97;15.32;;;;;;;13.22;96.91;101705.56;6181067;23;20001;-91
2022/10/13 08:37:17;;;;;;;31.42;14.98;;;;;;;13.34;97.62;101722.66;6182126;23;20052;-90
2022/10/13 08:39:45;;;;;;;30.63;15.30;;;;;;;13.36;96.53;101719.16;6180811;23;20446;-91
2022/10/13 08:42:17;;;;;;;31.08;14.82;;;;;;;13.35;97.00;101716.56;6179200;23;20316;-91
2022/10/13 08:44:47;;;;;;;29.98;14.93;;;;;;;13.31;97.59;101707.94;6180475;23;20009;-91
2022/10/13 08:47:41;;;;;;;29.77;15.23;;;;;;;13.42;97.70;101707.72;6179381;23;20005;-92
2022/10/13 08:50:15;;;;;;;35.47;15.45;;;;;;;13.45;96.10;101707.66;6179723;23;20079;-92
2022/10/13 08:52:55;;;;;;;30.98;14.98;;;;;;;13.48;97.44;101714.56;6179846;23;20091;-90
2022/10/13 08:55:54;;;;;;;34.03;14.65;;;;;;;13.49;96.84;101693.69;6181805;23;20526;-91
2022/10/13 08:58:31;;;;;;;31.35;15.35;;;;;;;13.60;96.16;101699.50;6157910;23;20016;-92
2022/10/13 09:01:24;;;;;;;30.10;14.60;;;;;;;13.66;96.93;101685.47;6179314;23;20008;-92
2022/10/13 09:03:56;;;;;;;34.83;15.32;;;;;;;13.80;95.70;101707.72;6179669;23;20028;-91
2022/10/13 09:06:26;;;;;;;33.17;15.55;;;;;;;13.88;94.09;101715.38;6182126;23;20074;-91
2022/10/13 09:08:59;;;;;;;30.70;14.52;;;;;;;13.92;93.34;101710.97;6178088;23;20072;-91
2022/10/13 09:11:31;;;;;;;30.58;14.55;;;;;;;13.81;92.81;101690.34;6178646;23;20024;-91
2022/10/13 09:14:00;;;;;;;34.70;15.15;;;;;;;13.84;93.25;101698.09;6180158;23;20016;-91
2022/10/13 09:16:36;;;;;;;31.33;15.25;;;;;;;13.96;92.23;101708.22;6179878;23;20016;-91
2022/10/13 09:19:28;;;;;;;30.05;14.07;;;;;;;13.99;93.92;101708.13;6181182;23;20035;-91
2022/10/13 09:22:14;;;;;;;31.08;14.45;;;;;;;13.90;92.96;101690.13;6179496;23;20423;-91
2022/10/13 09:24:39;;;;;;;29.63;14.65;;;;;;;13.91;92.02;101697.06;6181381;23;20001;-91
2022/10/13 09:27:15;;;;;;;29.42;14.18;;;;;;;13.80;93.13;101692.09;6180874;23;20059;-90
2022/10/13 09:29:42;;;;;;;30.17;14.73;;;;;;;13.74;93.17;101680.94;6179988;23;20005;-90
2022/10/13 09:32:18;;;;;;;31.98;14.10;;;;;;;13.79;94.21;101697.31;6179044;23;20001;-91
2022/10/13 09:34:45;;;;;;;29.55;14.00;;;;;;;13.71;94.38;101689.72;6179493;23;20005;-90
2022/10/13 09:37:36;;;;;;;29.27;14.05;;;;;;;13.68;95.31;101696.72;6179250;23;20433;-90
2022/10/13 09:40:18;;;;;;;31.63;14.10;;;;;;;13.55;93.97;101685.72;6176376;23;20036;-90
2022/10/13 09:42:51;;;;;;;29.27;13.55;;;;;;;13.66;94.91;101701.09;6178600;23;20021;-91
2022/10/13 09:45:20;;;;;;;30.38;15.13;;;;;;;13.61;95.28;101693.41;6179396;23;20354;-91
2022/10/13 09:48:06;;;;;;;33.22;15.38;;;;;;;13.56;94.41;101668.38;6181367;23;20470;-91
2022/10/13 09:50:34;;;;;;;32.30;15.23;;;;;;;13.69;94.63;101693.25;6180944;23;20012;-91
2022/10/13 09:53:29;;;;;;;33.03;16.02;;;;;;;13.77;95.54;101694.78;6179384;23;20001;-90
2022/10/13 09:56:07;;;;;;;30.30;15.35;;;;;;;13.80;95.58;101691.22;6181390;23;20055;-90
2022/10/13 09:58:37;;;;;;;33.30;15.23;;;;;;;13.70;95.00;101681.94;6179169;23;20341;-90
2022/10/13 10:01:04;;;;;;;32.78;15.52;;;;;;;13.69;95.15;101678.47;6180480;23;20001;-89
2022/10/13 10:03:36;;;;;;;32.40;15.52;;;;;;;13.80;94.61;101686.88;6180625;23;20005;-90
2022/10/13 10:06:05;;;;;;;33.28;16.30;;;;;;;13.85;94.03;101692.00;6181317;23;20403;-89
2022/10/13 10:08:38;;;;;;;33.33;15.60;;;;;;;13.85;93.46;101694.59;6179159;23;20028;-90
2022/10/13 10:11:11;;;;;;;33.63;15.82;;;;;;;13.80;93.24;101696.44;6179239;23;20016;-90
2022/10/13 10:13:36;;;;;;;30.55;14.80;;;;;;;13.73;93.12;101692.25;6179173;23;20009;-90
2022/10/13 10:16:18;;;;;;;33.55;14.55;;;;;;;13.66;92.67;101695.91;6179760;23;20059;-91
2022/10/13 10:19:01;;;;;;;31.40;14.88;;;;;;;13.57;94.53;101693.53;6181135;23;20005;-91
2022/10/13 10:22:02;;;;;;;31.88;15.00;;;;;;;13.47;96.47;101685.03;6181088;23;20011;-90
2022/10/13 10:25:20;;;;;;;30.65;14.63;;;;;;;13.42;97.83;101686.91;6179540;23;20012;-91
2022/10/13 10:28:40;;;;;;;30.85;15.18;;;;;;;13.29;98.11;101657.66;6179388;23;20001;-92
2022/10/13 10:31:54;;;;;;;31.65;15.05;;;;;;;13.38;99.73;101669.59;6180295;23;20001;-92
2022/10/13 10:35:00;;;;;;;32.72;15.52;;;;;;;13.48;99.63;101680.69;6179133;23;20005;-92
2022/10/13 10:38:09;;;;;;;31.38;14.85;;;;;;;13.46;100.00;101683.31;6179337;23;20446;-91
2022/10/13 10:41:00;;;;;;;29.33;14.57;;;;;;;13.31;100.00;101673.22;6179213;23;20001;-92
2022/10/13 10:47:03;;;;;;;;;;;;;;;13.35;98.77;101680.09;6181238;23;20047;-92
2022/10/13 10:49:55;;;;;;;27.98;13.93;;;;;;;13.04;100.00;101648.63;6179441;23;19939;-91
2022/10/13 10:52:54;;;;;;;30.15;14.90;;;;;;;13.09;100.00;101678.03;6178585;23;20001;-91
2022/10/13 10:55:59;;;;;;;29.45;14.43;;;;;;;13.02;100.00;101669.50;6178927;23;20033;-91
2022/10/13 10:59:18;;;;;;;30.30;14.88;;;;;;;12.87;100.00;101659.38;6179276;23;20521;-93
2022/10/13 11:09:00;;;;;;;28.35;14.10;;;;;;;13.02;100.00;101671.25;6153085;23;20366;-92
2022/10/13 11:12:02;;;;;;;26.27;13.88;;;;;;;13.04;100.00;101665.09;6181121;23;20076;-93
2022/10/13 11:15:26;;;;;;;28.85;14.68;;;;;;;13.01;100.00;101649.56;6180785;23;20001;-93
2022/10/13 11:18:05;;;;;;;31.52;13.95;;;;;;;13.15;100.00;101664.91;6147915;23;20009;-93
2022/10/13 11:24:03;;;;;;;27.02;14.10;;;;;;;13.01;100.00;101630.47;6149168;23;20117;-93
2022/10/13 11:30:02;;;;;;;25.75;13.75;;;;;;;13.11;100.00;101629.38;6109841;23;20101;-93
2022/10/13 11:33:18;;;;;;;26.70;14.32;;;;;;;13.10;100.00;101622.44;6124304;23;20009;-92
2022/10/13 11:36:43;;;;;;;32.28;14.25;;;;;;;13.12;100.00;101620.69;6149247;23;20013;-93
2022/10/13 11:46:46;;;;;;;25.98;13.50;;;;;;;13.21;100.00;101637.88;6182701;23;20513;-92
2022/10/13 11:49:49;;;;;;;26.70;14.38;;;;;;;13.06;100.00;101626.88;6180094;23;20336;-92
2022/10/13 11:52:52;;;;;;;27.13;14.25;;;;;;;12.89;100.00;101622.94;6180707;23;20171;-92
2022/10/13 11:56:17;;;;;;;30.52;15.30;;;;;;;12.72;100.00;101618.06;6180294;23;20456;-92
2022/10/13 11:59:22;;;;;;;29.48;14.65;;;;;;;12.75;100.00;101619.75;6089235;23;20014;-92